Terminal Aerodrome Forecast
Issued by NWS

Home | Current Version | Previous Version | Text Only | Print | Product List | Glossary On
Versions: 1 2 3 4 5 6 7 8 9 10 11 12 13 14 15 16 17 18 19 20 21 22 23 24 25 26
000
FTUS43 KDVN 282300
TAFCID
TAF
KCID 282320Z 2900/2924 03003KT P6SM SCT250
     FM290400 04008KT P6SM SCT120 BKN200
     FM291100 04009KT P6SM VCSH SCT040 OVC100
     FM291500 03010KT P6SM VCSH SCT030 OVC040=

USA.gov is the U.S. government's official web portal to all federal, state and local government web resources and services.